createdAt,value
2018-11-26T00:03:24.128Z,20.98
2018-11-26T00:08:26.670Z,20.98
2018-11-26T00:13:29.929Z,21.00
2018-11-26T00:18:32.649Z,21.00
2018-11-26T00:23:35.203Z,21.01
2018-11-26T00:28:37.823Z,21.01
2018-11-26T00:33:40.579Z,21.02
2018-11-26T00:38:43.940Z,21.05
2018-11-26T00:43:46.984Z,21.08
2018-11-26T00:48:49.681Z,21.05
2018-11-26T00:53:52.274Z,21.08
2018-11-26T00:58:54.835Z,21.11
2018-11-26T01:03:57.900Z,21.08
2018-11-26T01:09:00.485Z,21.11
2018-11-26T01:14:03.081Z,21.11
2018-11-26T01:19:05.954Z,21.09
2018-11-26T01:24:08.507Z,21.12
2018-11-26T01:29:11.154Z,21.12
2018-11-26T01:34:13.746Z,21.13
2018-11-26T01:39:17.313Z,21.11
2018-11-26T01:44:19.869Z,21.12
2018-11-26T01:49:22.436Z,21.13
2018-11-26T01:54:24.963Z,21.11
2018-11-26T01:59:27.516Z,21.07
2018-11-26T02:04:30.097Z,21.03
2018-11-26T02:09:32.635Z,21.00
2018-11-26T02:14:35.215Z,20.97
2018-11-26T02:19:37.751Z,20.96
2018-11-26T02:24:40.319Z,20.88
2018-11-26T02:29:42.862Z,20.85
2018-11-26T02:34:45.422Z,20.91
2018-11-26T02:39:47.982Z,20.85
2018-11-26T02:44:50.536Z,20.86
2018-11-26T02:49:53.092Z,20.80
2018-11-26T02:54:55.655Z,20.80
2018-11-26T02:59:58.202Z,20.77
2018-11-26T03:05:00.774Z,20.75
2018-11-26T03:10:04.076Z,20.72
2018-11-26T03:15:08.486Z,20.73
2018-11-26T03:20:11.066Z,20.71
2018-11-26T03:25:13.626Z,20.69
2018-11-26T03:30:18.552Z,20.69
2018-11-26T03:35:21.114Z,20.67
2018-11-26T03:40:23.723Z,20.65
2018-11-26T03:45:26.268Z,20.65
2018-11-26T03:50:28.789Z,20.63
2018-11-26T03:55:31.335Z,20.62
2018-11-26T04:00:33.855Z,20.60
2018-11-26T04:05:36.400Z,20.57
2018-11-26T04:10:38.940Z,20.56
2018-11-26T04:15:41.489Z,20.54
2018-11-26T04:20:44.004Z,20.53
2018-11-26T04:25:46.544Z,20.51
2018-11-26T04:30:49.074Z,20.49
2018-11-26T04:35:51.634Z,20.49
2018-11-26T04:40:54.237Z,20.36
2018-11-26T04:45:56.788Z,20.26
2018-11-26T04:50:59.299Z,20.29
2018-11-26T04:56:01.863Z,20.29
2018-11-26T05:01:04.404Z,20.28
2018-11-26T05:06:06.916Z,20.26
2018-11-26T05:11:09.524Z,20.23
2018-11-26T05:16:12.045Z,20.22
2018-11-26T05:21:14.570Z,20.21
2018-11-26T05:26:17.214Z,20.21
2018-11-26T05:31:19.744Z,20.19
2018-11-26T05:36:22.301Z,20.18
2018-11-26T05:41:24.799Z,20.17
2018-11-26T05:46:27.330Z,20.16
2018-11-26T05:51:29.856Z,20.15
2018-11-26T05:56:38.968Z,20.13
2018-11-26T06:01:41.559Z,20.12
2018-11-26T06:06:44.111Z,20.11
2018-11-26T06:11:46.654Z,20.12
2018-11-26T06:16:53.728Z,20.08
2018-11-26T06:21:51.803Z,20.08
2018-11-26T06:26:54.342Z,20.07
2018-11-26T06:31:56.874Z,20.07
2018-11-26T06:36:59.394Z,20.06
2018-11-26T06:42:01.916Z,20.05
2018-11-26T06:47:04.520Z,20.03
2018-11-26T06:52:07.073Z,20.03
2018-11-26T06:57:09.638Z,20.03
2018-11-26T07:02:12.226Z,20.02
2018-11-26T07:07:14.778Z,20.00
2018-11-26T07:12:17.347Z,19.99
2018-11-26T07:17:19.902Z,19.98
2018-11-26T07:22:22.445Z,19.95
2018-11-26T07:27:24.994Z,19.96
2018-11-26T07:32:27.551Z,19.94
2018-11-26T07:37:30.144Z,19.91
2018-11-26T07:42:32.882Z,17.35
2018-11-26T07:47:35.725Z,15.36
2018-11-26T07:52:38.534Z,14.62
2018-11-26T07:57:41.415Z,14.38
2018-11-26T08:02:44.119Z,15.19
2018-11-26T08:07:46.764Z,17.62
2018-11-26T08:12:49.841Z,18.76
2018-11-26T08:17:52.409Z,19.28
2018-11-26T08:22:54.956Z,19.84
2018-11-26T08:27:57.496Z,20.25
2018-11-26T08:33:00.799Z,20.33
2018-11-26T08:38:13.523Z,20.29
2018-11-26T08:43:20.528Z,20.20
2018-11-26T08:48:31.232Z,20.15
2018-11-26T08:53:33.787Z,20.15
2018-11-26T08:58:36.315Z,20.13
2018-11-26T09:03:44.194Z,20.18
2018-11-26T09:08:46.729Z,20.14
2018-11-26T09:13:49.290Z,20.14
2018-11-26T09:18:51.842Z,19.98
2018-11-26T09:23:54.380Z,19.91
2018-11-26T09:28:56.919Z,19.85
2018-11-26T09:33:59.464Z,19.85
2018-11-26T09:39:02.042Z,19.85
2018-11-26T09:44:04.575Z,19.83
2018-11-26T09:49:07.138Z,19.82
2018-11-26T09:54:09.689Z,19.85
2018-11-26T09:59:12.268Z,19.89
2018-11-26T10:04:14.814Z,20.00
2018-11-26T10:09:17.344Z,20.20
2018-11-26T10:14:19.883Z,20.16
2018-11-26T10:19:22.922Z,20.06
2018-11-26T10:24:25.517Z,19.77
2018-11-26T10:29:28.078Z,19.88
2018-11-26T14:29:35.825Z,20.19
2018-11-26T14:34:38.266Z,20.09
2018-11-26T14:44:48.307Z,19.98
2018-11-26T14:49:50.811Z,20.01
2018-11-26T14:54:53.221Z,19.92
2018-11-26T14:59:55.723Z,19.93
2018-11-26T15:04:58.155Z,19.92
2018-11-26T15:10:00.575Z,19.91
2018-11-26T15:15:03.125Z,19.91
2018-11-26T15:20:07.070Z,19.92
2018-11-26T15:34:41.909Z,20.04
2018-11-26T15:39:45.056Z,20.01
2018-11-26T15:44:47.749Z,20.04
2018-11-26T15:49:50.199Z,20.11
2018-11-26T15:54:52.886Z,20.09
2018-11-26T15:59:56.268Z,20.13
2018-11-26T16:04:58.898Z,20.29
2018-11-26T16:10:01.324Z,20.27
2018-11-26T16:15:04.102Z,20.31
2018-11-26T16:20:12.249Z,20.32
2018-11-26T16:25:15.417Z,20.32
2018-11-26T16:30:18.409Z,20.34
2018-11-26T16:35:36.617Z,20.36
2018-11-26T16:40:39.056Z,20.38
2018-11-26T16:45:41.513Z,20.38
2018-11-26T16:50:43.971Z,20.40
2018-11-26T16:55:46.820Z,20.40
2018-11-26T17:00:49.274Z,20.46
2018-11-26T17:05:51.721Z,20.69
2018-11-26T17:10:54.157Z,21.22
2018-11-26T17:15:56.819Z,21.45
2018-11-26T17:20:59.287Z,21.58
2018-11-26T17:26:02.245Z,21.54
2018-11-26T17:31:05.005Z,21.67
2018-11-26T17:36:07.432Z,21.74
2018-11-26T17:41:09.846Z,21.76
2018-11-26T17:46:12.265Z,21.77
2018-11-26T17:51:14.778Z,21.74
2018-11-26T17:56:17.231Z,21.79
2018-11-26T18:01:26.613Z,21.73
2018-11-26T18:06:29.053Z,21.84
2018-11-26T18:11:31.469Z,21.79
2018-11-26T18:16:33.882Z,21.68
2018-11-26T18:21:36.835Z,21.79
2018-11-26T18:26:39.261Z,21.90
2018-11-26T18:31:41.686Z,21.91
2018-11-26T18:36:44.124Z,21.85
2018-11-26T18:41:46.577Z,21.77
2018-11-26T18:46:49.063Z,21.75
2018-11-26T18:51:51.509Z,21.68
2018-11-26T18:56:53.946Z,21.79
2018-11-26T19:01:56.390Z,21.89
2018-11-26T19:06:58.834Z,21.76
2018-11-26T19:12:04.118Z,22.00
2018-11-26T19:17:03.810Z,21.98
2018-11-26T19:22:06.246Z,21.90
2018-11-26T19:27:08.719Z,21.88
2018-11-26T19:35:07.102Z,21.74
2018-11-26T19:40:12.042Z,21.74
2018-11-26T19:45:15.171Z,21.81
2018-11-26T19:50:18.237Z,21.95
2018-11-26T19:55:23.670Z,21.89
2018-11-26T20:00:28.270Z,21.88
2018-11-26T20:05:43.178Z,21.85
2018-11-26T20:10:46.512Z,21.77
2018-11-26T20:15:50.308Z,21.74
2018-11-26T20:20:53.654Z,21.77
2018-11-26T20:31:00.014Z,21.62
2018-11-26T20:36:03.394Z,21.54
2018-11-26T20:41:07.867Z,21.49
2018-11-26T20:46:11.237Z,21.44
2018-11-26T20:51:14.565Z,21.42
2018-11-26T20:56:18.469Z,21.34
2018-11-26T21:01:21.779Z,21.36
2018-11-26T21:06:25.122Z,21.39
2018-11-26T21:11:28.495Z,21.23
2018-11-26T21:16:31.841Z,21.22
2018-11-26T21:21:35.153Z,21.22
2018-11-26T21:26:38.471Z,21.23
2018-11-26T21:31:41.790Z,21.22
2018-11-26T21:36:45.124Z,21.14
2018-11-26T21:41:48.450Z,21.11
2018-11-26T21:46:53.029Z,21.10
2018-11-26T21:51:55.171Z,21.10
2018-11-26T21:56:58.491Z,21.14
2018-11-26T22:02:01.822Z,21.09
2018-11-26T22:07:05.390Z,21.06
2018-11-26T22:12:08.730Z,21.00
2018-11-26T22:17:12.050Z,21.04
2018-11-26T22:22:15.350Z,21.02
2018-11-26T22:27:18.686Z,20.98
2018-11-26T22:32:22.007Z,21.01
2018-11-26T22:37:25.328Z,20.97
2018-11-26T22:42:28.639Z,21.00
2018-11-26T22:47:31.958Z,20.95
2018-11-26T22:52:35.304Z,20.92
2018-11-26T22:57:38.652Z,20.95
